createdAt,value
2017-09-23T11:55:57.085Z,25.50
2017-09-23T11:58:23.361Z,25.40
2017-09-23T12:00:49.658Z,25.70
2017-09-23T12:03:15.964Z,25.90
2017-09-23T12:05:42.278Z,26.20
2017-09-23T12:08:09.069Z,26.00
2017-09-23T12:10:35.348Z,26.30
2017-09-23T12:13:01.654Z,30.10
2017-09-23T12:15:27.978Z,35.20
2017-09-23T12:17:54.266Z,38.40
2017-09-23T12:20:20.924Z,39.70
2017-09-23T12:22:47.213Z,40.20
2017-09-23T12:25:13.553Z,41.30
2017-09-23T12:27:39.838Z,41.70
2017-09-23T12:30:06.563Z,39.60
2017-09-23T12:32:32.827Z,39.60
2017-09-23T12:35:01.654Z,36.30
2017-09-23T12:37:27.985Z,36.30
2017-09-23T12:39:54.324Z,36.30
2017-09-23T12:42:20.640Z,36.80
2017-09-23T12:44:47.009Z,36.20
2017-09-23T12:47:13.385Z,34.90
2017-09-23T12:49:39.677Z,34.70
2017-09-23T12:52:06.240Z,34.40
2017-09-23T12:54:32.557Z,36.20
2017-09-23T12:56:58.864Z,38.80
2017-09-23T12:59:25.930Z,41.10
2017-09-23T13:01:52.627Z,41.00
2017-09-23T13:04:18.969Z,41.00
2017-09-23T13:06:45.326Z,39.00
2017-09-23T13:09:11.660Z,37.70
2017-09-23T13:11:38.483Z,39.80
2017-09-23T13:14:04.973Z,39.90
2017-09-23T13:16:32.224Z,41.70
2017-09-23T13:18:58.559Z,43.70
2017-09-23T13:21:24.876Z,44.50
2017-09-23T13:23:51.236Z,44.10
2017-09-23T13:26:17.593Z,42.80
2017-09-23T13:28:43.920Z,39.40
2017-09-23T13:31:10.217Z,36.10
2017-09-23T13:33:36.512Z,33.20
2017-09-23T13:36:03.090Z,31.20
2017-09-23T13:38:29.366Z,29.60
2017-09-23T13:40:56.039Z,27.70
2017-09-23T13:43:22.332Z,27.70
2017-09-23T13:45:49.019Z,26.40
2017-09-23T13:48:15.318Z,26.40
2017-09-23T13:50:41.611Z,26.00
2017-09-23T13:53:08.173Z,25.80
2017-09-23T13:55:34.878Z,27.70
2017-09-23T13:58:01.222Z,27.70
2017-09-23T14:00:27.555Z,31.40
2017-09-23T14:02:54.153Z,34.80
2017-09-23T14:05:20.444Z,37.20
2017-09-23T14:07:47.101Z,38.20
2017-09-23T14:10:13.395Z,38.20
2017-09-23T14:12:39.683Z,38.90
2017-09-23T14:15:06.133Z,40.60
2017-09-23T14:17:33.323Z,42.10
2017-09-23T14:20:00.940Z,42.80
2017-09-23T14:22:27.226Z,42.80
2017-09-23T14:24:53.813Z,42.40
2017-09-23T14:27:20.161Z,41.50
2017-09-23T14:29:46.701Z,39.60
2017-09-23T14:32:12.981Z,36.70
2017-09-23T14:34:39.251Z,34.50
2017-09-23T14:37:05.577Z,33.90
2017-09-23T14:39:31.879Z,34.90
2017-09-23T14:41:58.254Z,35.30
2017-09-23T14:44:24.541Z,36.70
2017-09-23T14:46:50.840Z,37.10
2017-09-23T14:49:17.161Z,35.90
2017-09-23T14:51:43.461Z,34.60
2017-09-23T14:54:09.753Z,33.80
2017-09-23T14:56:36.034Z,33.70
2017-09-23T14:59:03.388Z,34.20
2017-09-23T15:01:30.045Z,32.60
2017-09-23T15:03:56.358Z,32.60
2017-09-23T15:06:22.662Z,31.00
2017-09-23T15:08:49.012Z,29.50
2017-09-23T15:11:15.341Z,28.20
2017-09-23T15:13:41.663Z,26.90
2017-09-23T15:16:07.966Z,26.00
2017-09-23T15:18:34.280Z,25.70
2017-09-23T15:21:00.561Z,25.70
2017-09-23T15:23:26.879Z,26.00
2017-09-23T15:25:53.225Z,25.90
2017-09-23T15:28:19.580Z,25.90
2017-09-23T15:30:45.903Z,26.00
2017-09-23T15:33:12.245Z,26.00
2017-09-23T15:35:38.542Z,25.90
2017-09-23T15:38:04.854Z,25.50
2017-09-23T15:40:33.034Z,25.20
2017-09-23T15:42:59.336Z,24.70
2017-09-23T15:45:25.612Z,24.40
2017-09-23T15:47:52.339Z,24.00
2017-09-23T15:50:18.646Z,24.00
2017-09-23T15:52:44.983Z,23.70
2017-09-23T15:55:11.301Z,22.80
2017-09-23T15:57:37.620Z,22.40
2017-09-23T16:00:03.986Z,22.50
2017-09-23T16:02:30.285Z,22.40
2017-09-23T16:04:56.617Z,22.20
2017-09-23T16:07:23.095Z,21.90
2017-09-23T16:09:49.793Z,21.60
2017-09-23T16:12:16.115Z,21.60
2017-09-23T16:14:42.384Z,21.50
2017-09-23T16:17:08.697Z,21.40
2017-09-23T16:19:35.016Z,21.30
2017-09-23T16:22:01.349Z,21.30
2017-09-23T16:24:27.691Z,21.20
2017-09-23T16:26:54.033Z,21.20
2017-09-23T16:29:20.340Z,21.10
2017-09-23T16:31:46.690Z,21.00
2017-09-23T16:34:13.380Z,20.70
2017-09-23T16:36:39.673Z,20.70
2017-09-23T16:39:06.347Z,20.30
2017-09-23T16:41:32.956Z,20.30
2017-09-23T16:43:59.658Z,19.90
2017-09-23T16:46:25.953Z,19.90
2017-09-23T16:48:52.254Z,19.70
2017-09-23T16:51:18.933Z,19.30
2017-09-23T16:53:45.232Z,19.30
2017-09-23T16:56:11.527Z,19.10
2017-09-23T16:58:37.829Z,19.00
2017-09-23T17:01:04.139Z,18.80
2017-09-23T17:03:30.468Z,18.70
2017-09-23T17:05:56.743Z,18.60
2017-09-23T17:08:23.343Z,18.50
2017-09-23T17:10:49.652Z,18.50
2017-09-23T17:13:15.948Z,18.40
2017-09-23T17:15:42.279Z,18.30
2017-09-23T17:18:08.961Z,18.20
2017-09-23T17:20:35.303Z,18.20
2017-09-23T17:23:01.598Z,18.10
2017-09-23T17:25:28.323Z,17.90
2017-09-23T17:27:55.003Z,17.70
2017-09-23T17:30:21.364Z,17.70
2017-09-23T17:32:48.670Z,17.60
2017-09-23T17:35:14.974Z,17.50
2017-09-23T17:37:41.318Z,17.40
2017-09-23T17:40:08.036Z,17.10
2017-09-23T17:42:34.394Z,17.10
2017-09-23T17:45:00.761Z,17.10
2017-09-23T17:47:27.123Z,16.90
2017-09-23T17:49:53.502Z,16.90
2017-09-23T17:52:19.820Z,16.70
2017-09-23T17:54:46.158Z,16.60
2017-09-23T17:57:12.501Z,16.60
2017-09-23T17:59:39.821Z,16.50
2017-09-23T18:02:06.922Z,16.40
2017-09-23T18:04:33.211Z,16.40
2017-09-23T18:06:59.663Z,16.30
2017-09-23T18:09:26.857Z,16.30
2017-09-23T18:11:53.157Z,16.20
2017-09-23T18:14:19.497Z,16.10
2017-09-23T18:16:45.781Z,16.10
2017-09-23T18:19:12.958Z,16.00
2017-09-23T18:21:39.250Z,15.90
2017-09-23T18:24:05.561Z,15.90
2017-09-23T18:26:31.906Z,15.80
2017-09-23T18:31:31.675Z,15.70
2017-09-23T18:33:58.008Z,15.60
2017-09-23T18:36:24.397Z,15.60
2017-09-23T18:38:50.738Z,15.50
2017-09-23T18:41:18.527Z,15.50
2017-09-23T18:43:46.055Z,15.40
2017-09-23T18:46:12.422Z,15.40
2017-09-23T18:48:39.726Z,15.30
2017-09-23T18:51:06.851Z,15.20
2017-09-23T18:53:33.179Z,15.30
2017-09-23T18:55:59.489Z,15.20
2017-09-23T18:58:26.845Z,15.20
2017-09-23T19:00:53.201Z,15.10
2017-09-23T19:03:20.497Z,15.10
2017-09-23T19:05:47.240Z,15.00
2017-09-23T19:08:15.241Z,15.00
2017-09-23T19:10:41.548Z,15.00
2017-09-23T19:13:07.882Z,14.90
2017-09-23T19:15:34.197Z,14.90
2017-09-23T19:18:00.908Z,14.80
2017-09-23T19:20:27.240Z,14.80
2017-09-23T19:22:53.585Z,14.90
2017-09-23T19:25:20.910Z,14.90
2017-09-23T19:27:47.241Z,14.80
2017-09-23T19:30:13.561Z,14.80
2017-09-23T19:32:39.889Z,14.70
2017-09-23T19:35:06.832Z,14.60
2017-09-23T19:37:33.194Z,14.60
2017-09-23T19:39:59.919Z,14.50
2017-09-23T19:42:26.270Z,14.50
2017-09-23T19:44:52.609Z,14.40
2017-09-23T19:47:19.382Z,14.40
2017-09-23T19:49:45.702Z,14.40
2017-09-23T19:52:12.165Z,14.40
2017-09-23T19:54:38.514Z,14.40
2017-09-23T19:57:04.842Z,14.40
2017-09-23T19:59:31.253Z,14.50
2017-09-23T20:01:58.567Z,14.50
2017-09-23T20:04:25.282Z,14.50
2017-09-23T20:06:51.589Z,14.50
2017-09-23T20:09:17.941Z,14.50
2017-09-23T20:11:44.269Z,14.50
2017-09-23T20:14:10.623Z,14.40
2017-09-23T20:16:37.354Z,14.20
2017-09-23T20:19:04.084Z,14.10
2017-09-23T20:21:30.383Z,14.10
2017-09-23T20:23:56.755Z,14.10
2017-09-23T20:26:23.455Z,14.20
2017-09-23T20:28:49.774Z,14.10
2017-09-23T20:31:16.079Z,14.10
2017-09-23T20:33:43.269Z,14.10
2017-09-23T20:36:09.621Z,14.00
2017-09-23T20:38:35.945Z,14.00
2017-09-23T20:41:02.325Z,14.00
2017-09-23T20:43:28.603Z,13.70
2017-09-23T20:45:56.024Z,13.70
2017-09-23T20:48:22.330Z,13.70
2017-09-23T20:50:49.026Z,13.90
2017-09-23T20:53:15.373Z,13.90
2017-09-23T20:55:42.114Z,14.00
2017-09-23T20:58:09.078Z,14.00
2017-09-23T21:00:35.838Z,14.10
2017-09-23T21:03:02.201Z,14.10
2017-09-23T21:05:28.475Z,14.10
2017-09-23T21:07:54.778Z,14.10
2017-09-23T21:10:21.153Z,14.00
2017-09-23T21:12:47.474Z,14.00
2017-09-23T21:15:14.150Z,13.90
2017-09-23T21:17:40.725Z,13.90
2017-09-23T21:20:07.017Z,13.70
2017-09-23T21:22:33.316Z,13.50
2017-09-23T21:25:00.563Z,13.40
2017-09-23T21:27:26.889Z,13.40
2017-09-23T21:29:53.597Z,13.60
2017-09-23T21:32:20.542Z,13.60
2017-09-23T21:34:46.918Z,13.60
2017-09-23T21:37:13.287Z,13.60
2017-09-23T21:39:39.609Z,13.60
2017-09-23T21:42:05.901Z,13.70
2017-09-23T21:44:33.799Z,13.60
2017-09-23T21:47:01.037Z,13.60
2017-09-23T21:49:27.343Z,13.60
2017-09-23T21:51:54.029Z,13.60
2017-09-23T21:54:27.137Z,13.60
2017-09-23T21:56:53.617Z,13.40
2017-09-23T21:59:19.928Z,13.40
2017-09-23T22:01:47.563Z,13.40
2017-09-23T22:04:13.900Z,13.50
2017-09-23T22:06:40.502Z,13.40
2017-09-23T22:09:06.798Z,13.40
2017-09-23T22:11:33.115Z,13.40
2017-09-23T22:14:00.063Z,13.30
2017-09-23T22:16:26.746Z,13.30
2017-09-23T22:18:53.047Z,13.30
2017-09-23T22:21:19.745Z,13.40
2017-09-23T22:23:46.680Z,13.40
2017-09-23T22:26:12.953Z,13.40
2017-09-23T22:28:39.645Z,13.40
2017-09-23T22:31:05.917Z,13.40
2017-09-23T22:33:32.601Z,13.30
2017-09-23T22:35:58.901Z,13.30
2017-09-23T22:38:25.842Z,13.30
2017-09-23T22:40:52.151Z,13.30
2017-09-23T22:43:18.809Z,13.20
2017-09-23T22:45:45.497Z,13.30
2017-09-23T22:48:11.814Z,13.30
2017-09-23T22:50:38.156Z,13.30
2017-09-23T22:53:04.452Z,13.20
2017-09-23T22:55:30.773Z,13.20
2017-09-23T22:57:57.080Z,13.30
2017-09-23T23:00:23.825Z,13.30
2017-09-23T23:02:50.528Z,13.30
2017-09-23T23:05:16.838Z,13.30
2017-09-23T23:07:43.170Z,13.30
2017-09-23T23:10:09.763Z,13.30
2017-09-23T23:12:36.858Z,13.40
2017-09-23T23:15:05.281Z,13.40
2017-09-23T23:17:31.974Z,13.30
2017-09-23T23:19:58.577Z,13.30
2017-09-23T23:22:25.223Z,13.30
2017-09-23T23:24:51.536Z,13.30
2017-09-23T23:27:17.857Z,13.40
2017-09-23T23:29:44.522Z,13.40
2017-09-23T23:32:10.804Z,13.40
2017-09-23T23:34:43.181Z,13.50
2017-09-23T23:37:12.988Z,13.50
2017-09-23T23:39:40.638Z,13.60
2017-09-23T23:42:06.925Z,13.60
2017-09-23T23:44:33.237Z,13.50
2017-09-23T23:46:59.546Z,13.60
2017-09-23T23:49:25.824Z,13.60
2017-09-23T23:51:52.127Z,13.60
2017-09-23T23:54:18.426Z,13.80
2017-09-23T23:56:44.757Z,13.90
2017-09-23T23:59:11.067Z,13.90
